sensor_id;sensor_type;location;lat;lon;timestamp;P1;durP1;ratioP1;P2;durP2;ratioP2
5785;SDS011;2919;48.630;9.000;2022-08-19T00:00:24;19.83;;;9.40;;
5785;SDS011;2919;48.630;9.000;2022-08-19T00:02:50;14.13;;;7.27;;
5785;SDS011;2919;48.630;9.000;2022-08-19T00:05:17;16.23;;;8.33;;
5785;SDS011;2919;48.630;9.000;2022-08-19T00:07:44;14.33;;;6.87;;
5785;SDS011;2919;48.630;9.000;2022-08-19T00:10:12;15.50;;;8.40;;
5785;SDS011;2919;48.630;9.000;2022-08-19T00:12:39;16.50;;;8.47;;
5785;SDS011;2919;48.630;9.000;2022-08-19T00:15:06;14.13;;;8.60;;
5785;SDS011;2919;48.630;9.000;2022-08-19T00:17:36;13.13;;;7.80;;
5785;SDS011;2919;48.630;9.000;2022-08-19T00:20:03;19.67;;;8.07;;
5785;SDS011;2919;48.630;9.000;2022-08-19T00:22:29;12.10;;;7.30;;
5785;SDS011;2919;48.630;9.000;2022-08-19T00:24:55;21.40;;;9.07;;
5785;SDS011;2919;48.630;9.000;2022-08-19T00:27:20;12.80;;;7.33;;
5785;SDS011;2919;48.630;9.000;2022-08-19T00:29:46;13.07;;;7.30;;
5785;SDS011;2919;48.630;9.000;2022-08-19T00:32:11;13.43;;;7.40;;
5785;SDS011;2919;48.630;9.000;2022-08-19T00:34:37;23.53;;;8.90;;
5785;SDS011;2919;48.630;9.000;2022-08-19T00:37:03;16.33;;;8.30;;
5785;SDS011;2919;48.630;9.000;2022-08-19T00:39:28;23.07;;;9.73;;
5785;SDS011;2919;48.630;9.000;2022-08-19T00:41:55;18.10;;;9.47;;
5785;SDS011;2919;48.630;9.000;2022-08-19T00:44:23;18.47;;;9.03;;
5785;SDS011;2919;48.630;9.000;2022-08-19T00:46:51;23.50;;;8.30;;
5785;SDS011;2919;48.630;9.000;2022-08-19T00:52:04;17.33;;;9.03;;
5785;SDS011;2919;48.630;9.000;2022-08-19T00:54:37;23.47;;;8.87;;
5785;SDS011;2919;48.630;9.000;2022-08-19T00:57:04;24.70;;;8.93;;
5785;SDS011;2919;48.630;9.000;2022-08-19T00:59:33;16.63;;;8.33;;
5785;SDS011;2919;48.630;9.000;2022-08-19T01:02:01;26.03;;;10.73;;
5785;SDS011;2919;48.630;9.000;2022-08-19T01:04:27;20.03;;;9.20;;
5785;SDS011;2919;48.630;9.000;2022-08-19T01:06:53;20.97;;;10.53;;
5785;SDS011;2919;48.630;9.000;2022-08-19T01:09:18;28.23;;;10.23;;
5785;SDS011;2919;48.630;9.000;2022-08-19T01:11:44;21.87;;;10.30;;
5785;SDS011;2919;48.630;9.000;2022-08-19T01:14:10;19.70;;;10.87;;
5785;SDS011;2919;48.630;9.000;2022-08-19T01:16:37;28.03;;;11.70;;
5785;SDS011;2919;48.630;9.000;2022-08-19T01:19:18;17.60;;;9.20;;
5785;SDS011;2919;48.630;9.000;2022-08-19T01:21:58;19.40;;;10.00;;
5785;SDS011;2919;48.630;9.000;2022-08-19T01:24:33;22.40;;;9.90;;
5785;SDS011;2919;48.630;9.000;2022-08-19T01:26:58;25.70;;;9.97;;
5785;SDS011;2919;48.630;9.000;2022-08-19T01:29:24;23.30;;;10.57;;
5785;SDS011;2919;48.630;9.000;2022-08-19T01:31:50;22.00;;;10.93;;
5785;SDS011;2919;48.630;9.000;2022-08-19T01:34:17;20.37;;;11.20;;
5785;SDS011;2919;48.630;9.000;2022-08-19T01:36:44;27.57;;;10.90;;
5785;SDS011;2919;48.630;9.000;2022-08-19T01:39:13;24.87;;;10.43;;
5785;SDS011;2919;48.630;9.000;2022-08-19T01:41:47;27.77;;;12.30;;
5785;SDS011;2919;48.630;9.000;2022-08-19T01:44:14;21.80;;;9.97;;
5785;SDS011;2919;48.630;9.000;2022-08-19T01:46:41;28.70;;;11.37;;
5785;SDS011;2919;48.630;9.000;2022-08-19T01:49:07;23.83;;;9.87;;
5785;SDS011;2919;48.630;9.000;2022-08-19T01:51:34;24.80;;;13.37;;
5785;SDS011;2919;48.630;9.000;2022-08-19T01:54:00;22.20;;;11.60;;
5785;SDS011;2919;48.630;9.000;2022-08-19T01:56:26;21.70;;;10.20;;
5785;SDS011;2919;48.630;9.000;2022-08-19T01:58:56;23.73;;;11.67;;
5785;SDS011;2919;48.630;9.000;2022-08-19T02:01:32;24.23;;;12.20;;
5785;SDS011;2919;48.630;9.000;2022-08-19T02:03:59;18.17;;;9.50;;
5785;SDS011;2919;48.630;9.000;2022-08-19T02:06:28;18.03;;;10.50;;
5785;SDS011;2919;48.630;9.000;2022-08-19T02:08:53;23.40;;;12.20;;
5785;SDS011;2919;48.630;9.000;2022-08-19T02:11:21;25.17;;;11.73;;
5785;SDS011;2919;48.630;9.000;2022-08-19T02:13:51;18.23;;;10.47;;
5785;SDS011;2919;48.630;9.000;2022-08-19T02:16:18;21.63;;;11.17;;
5785;SDS011;2919;48.630;9.000;2022-08-19T02:18:44;23.93;;;11.73;;
5785;SDS011;2919;48.630;9.000;2022-08-19T02:21:13;24.50;;;10.97;;
5785;SDS011;2919;48.630;9.000;2022-08-19T02:23:40;23.20;;;12.07;;
5785;SDS011;2919;48.630;9.000;2022-08-19T02:26:06;22.30;;;11.37;;
5785;SDS011;2919;48.630;9.000;2022-08-19T02:28:32;26.27;;;11.90;;
5785;SDS011;2919;48.630;9.000;2022-08-19T02:30:58;25.67;;;12.03;;
5785;SDS011;2919;48.630;9.000;2022-08-19T02:33:25;25.67;;;11.60;;
5785;SDS011;2919;48.630;9.000;2022-08-19T02:35:51;24.17;;;10.47;;
5785;SDS011;2919;48.630;9.000;2022-08-19T02:38:17;25.23;;;12.77;;
5785;SDS011;2919;48.630;9.000;2022-08-19T02:41:00;26.93;;;12.43;;
5785;SDS011;2919;48.630;9.000;2022-08-19T02:43:29;30.77;;;12.97;;
5785;SDS011;2919;48.630;9.000;2022-08-19T02:45:55;23.97;;;11.47;;
5785;SDS011;2919;48.630;9.000;2022-08-19T02:48:22;21.50;;;11.20;;
5785;SDS011;2919;48.630;9.000;2022-08-19T02:50:50;20.53;;;10.70;;
5785;SDS011;2919;48.630;9.000;2022-08-19T02:53:20;26.00;;;9.87;;
5785;SDS011;2919;48.630;9.000;2022-08-19T02:55:47;29.60;;;12.63;;
5785;SDS011;2919;48.630;9.000;2022-08-19T02:58:14;23.00;;;11.30;;
5785;SDS011;2919;48.630;9.000;2022-08-19T03:00:41;24.17;;;10.77;;
5785;SDS011;2919;48.630;9.000;2022-08-19T03:03:11;23.73;;;12.60;;
5785;SDS011;2919;48.630;9.000;2022-08-19T03:05:37;24.67;;;12.27;;
5785;SDS011;2919;48.630;9.000;2022-08-19T03:08:03;21.20;;;10.37;;
5785;SDS011;2919;48.630;9.000;2022-08-19T03:10:30;25.33;;;12.10;;
5785;SDS011;2919;48.630;9.000;2022-08-19T03:12:57;21.50;;;11.90;;
5785;SDS011;2919;48.630;9.000;2022-08-19T03:15:22;25.50;;;13.20;;
5785;SDS011;2919;48.630;9.000;2022-08-19T03:17:48;23.20;;;12.07;;
5785;SDS011;2919;48.630;9.000;2022-08-19T03:20:14;25.50;;;12.80;;
5785;SDS011;2919;48.630;9.000;2022-08-19T03:22:39;23.07;;;10.70;;
5785;SDS011;2919;48.630;9.000;2022-08-19T03:25:05;24.10;;;12.77;;
5785;SDS011;2919;48.630;9.000;2022-08-19T03:27:31;23.40;;;11.60;;
5785;SDS011;2919;48.630;9.000;2022-08-19T03:29:56;28.03;;;12.37;;
5785;SDS011;2919;48.630;9.000;2022-08-19T03:32:22;20.03;;;11.03;;
5785;SDS011;2919;48.630;9.000;2022-08-19T03:34:47;22.83;;;11.77;;
5785;SDS011;2919;48.630;9.000;2022-08-19T03:37:14;24.07;;;12.90;;
5785;SDS011;2919;48.630;9.000;2022-08-19T03:39:40;25.17;;;12.67;;
5785;SDS011;2919;48.630;9.000;2022-08-19T03:42:07;23.40;;;10.97;;
5785;SDS011;2919;48.630;9.000;2022-08-19T03:44:33;23.13;;;12.70;;
5785;SDS011;2919;48.630;9.000;2022-08-19T03:47:02;21.13;;;12.37;;
5785;SDS011;2919;48.630;9.000;2022-08-19T03:49:29;22.60;;;12.03;;
5785;SDS011;2919;48.630;9.000;2022-08-19T03:51:58;30.70;;;14.37;;
5785;SDS011;2919;48.630;9.000;2022-08-19T03:54:25;25.17;;;13.30;;
5785;SDS011;2919;48.630;9.000;2022-08-19T03:56:53;25.40;;;13.10;;
5785;SDS011;2919;48.630;9.000;2022-08-19T03:59:24;24.83;;;13.73;;
5785;SDS011;2919;48.630;9.000;2022-08-19T04:01:56;32.50;;;14.67;;
5785;SDS011;2919;48.630;9.000;2022-08-19T04:04:22;25.63;;;14.10;;
5785;SDS011;2919;48.630;9.000;2022-08-19T04:06:48;30.00;;;15.50;;
5785;SDS011;2919;48.630;9.000;2022-08-19T04:09:16;30.73;;;14.50;;
5785;SDS011;2919;48.630;9.000;2022-08-19T04:11:44;27.87;;;14.00;;
5785;SDS011;2919;48.630;9.000;2022-08-19T04:14:14;29.73;;;14.17;;
5785;SDS011;2919;48.630;9.000;2022-08-19T04:16:42;22.50;;;11.37;;
5785;SDS011;2919;48.630;9.000;2022-08-19T04:19:09;34.50;;;15.53;;
5785;SDS011;2919;48.630;9.000;2022-08-19T04:21:35;26.77;;;14.93;;
5785;SDS011;2919;48.630;9.000;2022-08-19T04:24:01;27.73;;;12.07;;
5785;SDS011;2919;48.630;9.000;2022-08-19T04:26:28;29.13;;;14.17;;
5785;SDS011;2919;48.630;9.000;2022-08-19T04:28:58;28.47;;;14.70;;
5785;SDS011;2919;48.630;9.000;2022-08-19T04:31:27;32.50;;;14.53;;
5785;SDS011;2919;48.630;9.000;2022-08-19T04:33:54;32.37;;;15.10;;
5785;SDS011;2919;48.630;9.000;2022-08-19T04:36:22;30.87;;;14.90;;
5785;SDS011;2919;48.630;9.000;2022-08-19T04:38:53;37.87;;;14.40;;
5785;SDS011;2919;48.630;9.000;2022-08-19T04:41:20;27.80;;;14.37;;
5785;SDS011;2919;48.630;9.000;2022-08-19T04:44:04;30.40;;;14.53;;
5785;SDS011;2919;48.630;9.000;2022-08-19T04:46:30;30.83;;;14.63;;
5785;SDS011;2919;48.630;9.000;2022-08-19T04:48:57;31.97;;;15.20;;
5785;SDS011;2919;48.630;9.000;2022-08-19T04:51:24;28.60;;;14.90;;
5785;SDS011;2919;48.630;9.000;2022-08-19T04:53:50;30.33;;;14.33;;
5785;SDS011;2919;48.630;9.000;2022-08-19T04:56:17;28.63;;;12.47;;
5785;SDS011;2919;48.630;9.000;2022-08-19T04:58:49;30.87;;;13.97;;
5785;SDS011;2919;48.630;9.000;2022-08-19T05:01:20;26.97;;;14.90;;
5785;SDS011;2919;48.630;9.000;2022-08-19T05:03:51;29.10;;;15.20;;
5785;SDS011;2919;48.630;9.000;2022-08-19T05:06:18;29.20;;;14.50;;
5785;SDS011;2919;48.630;9.000;2022-08-19T05:08:46;29.93;;;14.60;;
5785;SDS011;2919;48.630;9.000;2022-08-19T05:13:38;29.73;;;14.50;;
5785;SDS011;2919;48.630;9.000;2022-08-19T05:16:04;27.80;;;15.23;;
5785;SDS011;2919;48.630;9.000;2022-08-19T05:18:30;37.17;;;15.20;;
5785;SDS011;2919;48.630;9.000;2022-08-19T05:21:16;26.23;;;13.60;;
5785;SDS011;2919;48.630;9.000;2022-08-19T05:24:03;36.87;;;14.43;;
5785;SDS011;2919;48.630;9.000;2022-08-19T05:26:34;34.90;;;16.03;;
5785;SDS011;2919;48.630;9.000;2022-08-19T05:29:00;27.93;;;13.43;;
5785;SDS011;2919;48.630;9.000;2022-08-19T05:31:26;31.40;;;14.90;;
5785;SDS011;2919;48.630;9.000;2022-08-19T05:33:52;33.80;;;14.60;;
5785;SDS011;2919;48.630;9.000;2022-08-19T05:36:17;40.83;;;16.30;;
5785;SDS011;2919;48.630;9.000;2022-08-19T05:38:44;27.37;;;13.47;;
5785;SDS011;2919;48.630;9.000;2022-08-19T05:41:11;29.30;;;14.43;;
5785;SDS011;2919;48.630;9.000;2022-08-19T05:43:38;30.73;;;14.00;;
5785;SDS011;2919;48.630;9.000;2022-08-19T05:46:04;28.33;;;13.10;;
5785;SDS011;2919;48.630;9.000;2022-08-19T05:48:31;30.13;;;15.50;;
5785;SDS011;2919;48.630;9.000;2022-08-19T05:50:57;27.03;;;14.33;;
5785;SDS011;2919;48.630;9.000;2022-08-19T05:53:24;33.60;;;16.07;;
5785;SDS011;2919;48.630;9.000;2022-08-19T05:55:50;36.37;;;14.97;;
5785;SDS011;2919;48.630;9.000;2022-08-19T05:58:16;26.37;;;11.50;;
5785;SDS011;2919;48.630;9.000;2022-08-19T06:00:42;33.50;;;13.80;;
5785;SDS011;2919;48.630;9.000;2022-08-19T06:03:09;26.50;;;12.73;;
5785;SDS011;2919;48.630;9.000;2022-08-19T06:05:35;25.50;;;13.97;;
5785;SDS011;2919;48.630;9.000;2022-08-19T06:08:00;28.80;;;14.00;;
5785;SDS011;2919;48.630;9.000;2022-08-19T06:10:27;27.13;;;14.10;;
5785;SDS011;2919;48.630;9.000;2022-08-19T06:12:53;33.90;;;14.97;;
5785;SDS011;2919;48.630;9.000;2022-08-19T06:15:19;28.83;;;13.27;;
5785;SDS011;2919;48.630;9.000;2022-08-19T06:17:46;23.60;;;12.30;;
5785;SDS011;2919;48.630;9.000;2022-08-19T06:20:12;27.73;;;13.60;;
5785;SDS011;2919;48.630;9.000;2022-08-19T06:22:39;28.90;;;14.13;;
5785;SDS011;2919;48.630;9.000;2022-08-19T06:25:06;27.33;;;13.27;;
5785;SDS011;2919;48.630;9.000;2022-08-19T06:27:34;25.17;;;13.63;;
5785;SDS011;2919;48.630;9.000;2022-08-19T06:30:00;26.60;;;14.83;;
5785;SDS011;2919;48.630;9.000;2022-08-19T06:32:26;29.27;;;14.90;;
5785;SDS011;2919;48.630;9.000;2022-08-19T06:34:52;29.47;;;14.27;;
5785;SDS011;2919;48.630;9.000;2022-08-19T06:37:17;32.40;;;13.97;;
5785;SDS011;2919;48.630;9.000;2022-08-19T06:39:43;22.47;;;12.77;;
5785;SDS011;2919;48.630;9.000;2022-08-19T06:42:10;27.50;;;14.90;;
5785;SDS011;2919;48.630;9.000;2022-08-19T06:44:39;24.57;;;13.10;;
5785;SDS011;2919;48.630;9.000;2022-08-19T06:47:07;26.50;;;13.77;;
5785;SDS011;2919;48.630;9.000;2022-08-19T06:49:34;29.97;;;15.40;;
5785;SDS011;2919;48.630;9.000;2022-08-19T06:52:00;24.33;;;13.30;;
5785;SDS011;2919;48.630;9.000;2022-08-19T06:54:27;26.83;;;13.47;;
5785;SDS011;2919;48.630;9.000;2022-08-19T06:56:54;23.90;;;13.97;;
5785;SDS011;2919;48.630;9.000;2022-08-19T06:59:22;28.50;;;14.07;;
5785;SDS011;2919;48.630;9.000;2022-08-19T07:01:52;20.90;;;11.17;;
5785;SDS011;2919;48.630;9.000;2022-08-19T07:04:21;22.53;;;13.23;;
5785;SDS011;2919;48.630;9.000;2022-08-19T07:06:56;19.53;;;11.30;;
5785;SDS011;2919;48.630;9.000;2022-08-19T07:09:50;26.13;;;12.23;;
5785;SDS011;2919;48.630;9.000;2022-08-19T07:12:17;24.30;;;12.93;;
5785;SDS011;2919;48.630;9.000;2022-08-19T07:14:43;22.70;;;11.87;;
5785;SDS011;2919;48.630;9.000;2022-08-19T07:17:11;32.47;;;12.57;;
5785;SDS011;2919;48.630;9.000;2022-08-19T07:19:37;26.67;;;11.67;;
5785;SDS011;2919;48.630;9.000;2022-08-19T07:22:04;26.40;;;11.70;;
5785;SDS011;2919;48.630;9.000;2022-08-19T07:24:31;23.23;;;11.60;;
5785;SDS011;2919;48.630;9.000;2022-08-19T07:26:59;24.77;;;11.43;;
5785;SDS011;2919;48.630;9.000;2022-08-19T07:29:27;30.97;;;12.83;;
5785;SDS011;2919;48.630;9.000;2022-08-19T07:31:56;25.33;;;11.23;;
5785;SDS011;2919;48.630;9.000;2022-08-19T07:34:24;27.83;;;12.43;;
5785;SDS011;2919;48.630;9.000;2022-08-19T07:36:50;20.40;;;11.33;;
5785;SDS011;2919;48.630;9.000;2022-08-19T07:39:18;22.97;;;11.23;;
5785;SDS011;2919;48.630;9.000;2022-08-19T07:41:46;33.63;;;12.90;;
5785;SDS011;2919;48.630;9.000;2022-08-19T07:44:12;21.37;;;11.03;;
5785;SDS011;2919;48.630;9.000;2022-08-19T07:46:39;22.20;;;11.27;;
5785;SDS011;2919;48.630;9.000;2022-08-19T07:49:06;19.30;;;11.30;;
5785;SDS011;2919;48.630;9.000;2022-08-19T07:51:34;19.50;;;10.57;;
5785;SDS011;2919;48.630;9.000;2022-08-19T07:54:00;20.37;;;11.80;;
5785;SDS011;2919;48.630;9.000;2022-08-19T07:56:26;23.80;;;11.50;;
5785;SDS011;2919;48.630;9.000;2022-08-19T07:58:52;28.23;;;13.83;;
5785;SDS011;2919;48.630;9.000;2022-08-19T08:01:20;19.20;;;10.87;;
5785;SDS011;2919;48.630;9.000;2022-08-19T08:03:49;22.10;;;11.63;;
5785;SDS011;2919;48.630;9.000;2022-08-19T08:06:34;24.70;;;11.80;;
5785;SDS011;2919;48.630;9.000;2022-08-19T08:09:26;27.33;;;11.90;;
5785;SDS011;2919;48.630;9.000;2022-08-19T08:12:04;20.43;;;12.03;;
5785;SDS011;2919;48.630;9.000;2022-08-19T08:14:34;18.70;;;12.17;;
5785;SDS011;2919;48.630;9.000;2022-08-19T08:17:07;19.73;;;11.43;;
5785;SDS011;2919;48.630;9.000;2022-08-19T08:19:34;33.33;;;12.10;;
5785;SDS011;2919;48.630;9.000;2022-08-19T08:22:01;23.57;;;11.73;;
5785;SDS011;2919;48.630;9.000;2022-08-19T08:24:28;22.77;;;11.43;;
5785;SDS011;2919;48.630;9.000;2022-08-19T08:26:55;20.30;;;11.60;;
5785;SDS011;2919;48.630;9.000;2022-08-19T08:29:24;25.63;;;11.77;;
5785;SDS011;2919;48.630;9.000;2022-08-19T08:31:50;20.97;;;10.67;;
5785;SDS011;2919;48.630;9.000;2022-08-19T08:34:17;24.10;;;12.37;;
5785;SDS011;2919;48.630;9.000;2022-08-19T08:36:43;23.63;;;12.43;;
5785;SDS011;2919;48.630;9.000;2022-08-19T08:39:11;26.80;;;11.93;;
5785;SDS011;2919;48.630;9.000;2022-08-19T08:44:32;22.73;;;10.70;;
5785;SDS011;2919;48.630;9.000;2022-08-19T08:47:15;25.70;;;12.40;;
5785;SDS011;2919;48.630;9.000;2022-08-19T08:49:45;27.53;;;11.77;;
5785;SDS011;2919;48.630;9.000;2022-08-19T08:52:25;19.93;;;11.13;;
5785;SDS011;2919;48.630;9.000;2022-08-19T08:55:04;20.73;;;11.67;;
5785;SDS011;2919;48.630;9.000;2022-08-19T08:57:35;22.87;;;12.60;;
5785;SDS011;2919;48.630;9.000;2022-08-19T09:00:09;22.60;;;11.30;;
5785;SDS011;2919;48.630;9.000;2022-08-19T09:02:40;25.27;;;11.67;;
5785;SDS011;2919;48.630;9.000;2022-08-19T09:05:06;19.33;;;10.93;;
5785;SDS011;2919;48.630;9.000;2022-08-19T09:10:37;22.40;;;9.60;;
5785;SDS011;2919;48.630;9.000;2022-08-19T09:15:56;23.73;;;11.10;;
5785;SDS011;2919;48.630;9.000;2022-08-19T09:18:33;20.70;;;9.53;;
5785;SDS011;2919;48.630;9.000;2022-08-19T09:21:09;22.93;;;10.47;;
5785;SDS011;2919;48.630;9.000;2022-08-19T09:23:35;17.80;;;10.53;;
5785;SDS011;2919;48.630;9.000;2022-08-19T09:26:04;19.10;;;10.27;;
5785;SDS011;2919;48.630;9.000;2022-08-19T09:28:32;25.10;;;11.80;;
5785;SDS011;2919;48.630;9.000;2022-08-19T09:30:58;22.77;;;11.97;;
5785;SDS011;2919;48.630;9.000;2022-08-19T09:33:23;19.20;;;10.80;;
5785;SDS011;2919;48.630;9.000;2022-08-19T09:35:49;17.20;;;9.70;;
5785;SDS011;2919;48.630;9.000;2022-08-19T09:38:15;17.37;;;10.10;;
5785;SDS011;2919;48.630;9.000;2022-08-19T09:40:40;22.57;;;11.63;;
5785;SDS011;2919;48.630;9.000;2022-08-19T09:43:06;31.00;;;11.13;;
5785;SDS011;2919;48.630;9.000;2022-08-19T09:45:33;18.30;;;9.97;;
5785;SDS011;2919;48.630;9.000;2022-08-19T09:47:59;31.07;;;13.17;;
5785;SDS011;2919;48.630;9.000;2022-08-19T09:50:25;19.40;;;9.63;;
5785;SDS011;2919;48.630;9.000;2022-08-19T09:52:50;20.77;;;10.50;;
5785;SDS011;2919;48.630;9.000;2022-08-19T09:55:17;17.57;;;10.20;;
5785;SDS011;2919;48.630;9.000;2022-08-19T09:57:43;18.10;;;9.97;;
5785;SDS011;2919;48.630;9.000;2022-08-19T10:00:09;16.50;;;9.87;;
5785;SDS011;2919;48.630;9.000;2022-08-19T10:02:35;30.87;;;10.43;;
5785;SDS011;2919;48.630;9.000;2022-08-19T10:05:01;17.80;;;10.30;;
5785;SDS011;2919;48.630;9.000;2022-08-19T10:07:45;15.77;;;10.07;;
5785;SDS011;2919;48.630;9.000;2022-08-19T10:10:11;21.50;;;9.53;;
5785;SDS011;2919;48.630;9.000;2022-08-19T10:12:37;18.33;;;9.57;;
5785;SDS011;2919;48.630;9.000;2022-08-19T10:15:04;19.63;;;9.67;;
5785;SDS011;2919;48.630;9.000;2022-08-19T10:17:31;16.90;;;9.33;;
5785;SDS011;2919;48.630;9.000;2022-08-19T10:19:58;23.93;;;9.17;;
5785;SDS011;2919;48.630;9.000;2022-08-19T10:22:24;19.20;;;9.70;;
5785;SDS011;2919;48.630;9.000;2022-08-19T10:24:50;23.43;;;9.73;;
5785;SDS011;2919;48.630;9.000;2022-08-19T10:27:16;22.17;;;11.00;;
5785;SDS011;2919;48.630;9.000;2022-08-19T10:29:42;15.00;;;8.53;;
5785;SDS011;2919;48.630;9.000;2022-08-19T10:32:08;21.93;;;9.30;;
5785;SDS011;2919;48.630;9.000;2022-08-19T10:34:36;14.40;;;7.97;;
5785;SDS011;2919;48.630;9.000;2022-08-19T10:37:03;16.43;;;8.23;;
5785;SDS011;2919;48.630;9.000;2022-08-19T10:39:34;17.40;;;7.70;;
5785;SDS011;2919;48.630;9.000;2022-08-19T10:42:07;11.47;;;7.40;;
5785;SDS011;2919;48.630;9.000;2022-08-19T10:44:35;20.80;;;8.17;;
5785;SDS011;2919;48.630;9.000;2022-08-19T10:47:01;20.83;;;8.90;;
5785;SDS011;2919;48.630;9.000;2022-08-19T10:49:28;12.63;;;6.87;;
5785;SDS011;2919;48.630;9.000;2022-08-19T10:51:55;12.33;;;7.50;;
5785;SDS011;2919;48.630;9.000;2022-08-19T10:54:39;17.20;;;8.33;;
5785;SDS011;2919;48.630;9.000;2022-08-19T10:57:24;12.23;;;7.07;;
5785;SDS011;2919;48.630;9.000;2022-08-19T10:59:54;14.93;;;7.70;;
5785;SDS011;2919;48.630;9.000;2022-08-19T11:02:20;16.10;;;8.40;;
5785;SDS011;2919;48.630;9.000;2022-08-19T11:04:47;8.60;;;5.67;;
5785;SDS011;2919;48.630;9.000;2022-08-19T11:07:14;10.80;;;6.53;;
5785;SDS011;2919;48.630;9.000;2022-08-19T11:09:41;24.10;;;6.77;;
5785;SDS011;2919;48.630;9.000;2022-08-19T11:12:08;13.73;;;6.63;;
5785;SDS011;2919;48.630;9.000;2022-08-19T11:14:35;13.70;;;7.23;;
5785;SDS011;2919;48.630;9.000;2022-08-19T11:17:01;11.20;;;6.50;;
5785;SDS011;2919;48.630;9.000;2022-08-19T11:19:28;16.00;;;7.90;;
5785;SDS011;2919;48.630;9.000;2022-08-19T11:21:54;11.03;;;6.73;;
5785;SDS011;2919;48.630;9.000;2022-08-19T11:24:21;12.30;;;6.43;;
5785;SDS011;2919;48.630;9.000;2022-08-19T11:26:49;9.90;;;6.67;;
5785;SDS011;2919;48.630;9.000;2022-08-19T11:29:17;11.40;;;6.73;;
5785;SDS011;2919;48.630;9.000;2022-08-19T11:31:45;12.23;;;6.93;;
5785;SDS011;2919;48.630;9.000;2022-08-19T11:34:15;9.70;;;6.00;;
5785;SDS011;2919;48.630;9.000;2022-08-19T11:36:43;13.93;;;6.40;;
5785;SDS011;2919;48.630;9.000;2022-08-19T11:39:11;14.00;;;6.13;;
5785;SDS011;2919;48.630;9.000;2022-08-19T11:41:40;12.33;;;6.93;;
5785;SDS011;2919;48.630;9.000;2022-08-19T11:44:05;13.77;;;6.60;;
5785;SDS011;2919;48.630;9.000;2022-08-19T11:46:33;14.80;;;6.37;;
5785;SDS011;2919;48.630;9.000;2022-08-19T11:49:00;13.90;;;5.90;;
5785;SDS011;2919;48.630;9.000;2022-08-19T11:51:28;10.17;;;6.20;;
5785;SDS011;2919;48.630;9.000;2022-08-19T11:53:54;10.27;;;5.43;;
5785;SDS011;2919;48.630;9.000;2022-08-19T11:56:21;9.30;;;6.00;;
5785;SDS011;2919;48.630;9.000;2022-08-19T11:58:49;9.03;;;5.43;;
5785;SDS011;2919;48.630;9.000;2022-08-19T12:01:16;9.47;;;5.23;;
5785;SDS011;2919;48.630;9.000;2022-08-19T12:03:44;11.80;;;6.50;;
5785;SDS011;2919;48.630;9.000;2022-08-19T12:06:11;8.33;;;5.07;;
5785;SDS011;2919;48.630;9.000;2022-08-19T12:08:41;10.17;;;5.60;;
5785;SDS011;2919;48.630;9.000;2022-08-19T12:11:08;10.40;;;5.07;;
5785;SDS011;2919;48.630;9.000;2022-08-19T12:13:35;13.30;;;6.20;;
5785;SDS011;2919;48.630;9.000;2022-08-19T12:16:06;8.43;;;4.80;;
5785;SDS011;2919;48.630;9.000;2022-08-19T12:18:34;6.83;;;4.00;;
5785;SDS011;2919;48.630;9.000;2022-08-19T12:21:00;11.67;;;5.27;;
5785;SDS011;2919;48.630;9.000;2022-08-19T12:23:26;14.63;;;5.60;;
5785;SDS011;2919;48.630;9.000;2022-08-19T12:25:51;11.00;;;5.83;;
5785;SDS011;2919;48.630;9.000;2022-08-19T12:28:18;9.77;;;5.57;;
5785;SDS011;2919;48.630;9.000;2022-08-19T12:30:45;11.40;;;4.33;;
5785;SDS011;2919;48.630;9.000;2022-08-19T12:33:11;13.03;;;4.80;;
5785;SDS011;2919;48.630;9.000;2022-08-19T12:35:41;25.03;;;5.63;;
5785;SDS011;2919;48.630;9.000;2022-08-19T12:38:09;13.87;;;4.80;;
5785;SDS011;2919;48.630;9.000;2022-08-19T12:40:35;9.40;;;4.10;;
5785;SDS011;2919;48.630;9.000;2022-08-19T12:43:01;7.80;;;5.10;;
5785;SDS011;2919;48.630;9.000;2022-08-19T12:45:27;7.07;;;4.70;;
5785;SDS011;2919;48.630;9.000;2022-08-19T12:47:53;11.47;;;4.90;;
5785;SDS011;2919;48.630;9.000;2022-08-19T12:50:19;13.50;;;4.43;;
5785;SDS011;2919;48.630;9.000;2022-08-19T12:52:46;12.30;;;5.23;;
5785;SDS011;2919;48.630;9.000;2022-08-19T12:55:13;6.47;;;4.27;;
5785;SDS011;2919;48.630;9.000;2022-08-19T12:57:38;8.00;;;4.70;;
5785;SDS011;2919;48.630;9.000;2022-08-19T13:00:06;8.33;;;3.93;;
5785;SDS011;2919;48.630;9.000;2022-08-19T13:02:38;7.97;;;3.93;;
5785;SDS011;2919;48.630;9.000;2022-08-19T13:05:06;9.90;;;4.50;;
5785;SDS011;2919;48.630;9.000;2022-08-19T13:07:33;5.70;;;3.47;;
5785;SDS011;2919;48.630;9.000;2022-08-19T13:10:00;4.23;;;2.90;;
5785;SDS011;2919;48.630;9.000;2022-08-19T13:12:26;8.03;;;3.90;;
5785;SDS011;2919;48.630;9.000;2022-08-19T13:14:55;5.50;;;3.17;;
5785;SDS011;2919;48.630;9.000;2022-08-19T13:17:21;7.20;;;3.67;;
5785;SDS011;2919;48.630;9.000;2022-08-19T13:19:47;6.70;;;3.43;;
5785;SDS011;2919;48.630;9.000;2022-08-19T13:22:13;7.37;;;3.20;;
5785;SDS011;2919;48.630;9.000;2022-08-19T13:24:39;5.53;;;3.10;;
5785;SDS011;2919;48.630;9.000;2022-08-19T13:27:05;7.47;;;3.80;;
5785;SDS011;2919;48.630;9.000;2022-08-19T13:29:31;9.60;;;3.77;;
5785;SDS011;2919;48.630;9.000;2022-08-19T13:32:16;3.50;;;2.53;;
5785;SDS011;2919;48.630;9.000;2022-08-19T13:35:00;27.17;;;4.00;;
5785;SDS011;2919;48.630;9.000;2022-08-19T13:37:26;3.67;;;2.23;;
5785;SDS011;2919;48.630;9.000;2022-08-19T13:40:08;14.10;;;3.97;;
5785;SDS011;2919;48.630;9.000;2022-08-19T13:42:48;4.10;;;2.90;;
5785;SDS011;2919;48.630;9.000;2022-08-19T13:45:18;9.33;;;4.27;;
5785;SDS011;2919;48.630;9.000;2022-08-19T13:47:46;8.20;;;4.63;;
5785;SDS011;2919;48.630;9.000;2022-08-19T13:50:13;8.90;;;4.77;;
5785;SDS011;2919;48.630;9.000;2022-08-19T13:52:41;6.87;;;3.90;;
5785;SDS011;2919;48.630;9.000;2022-08-19T13:55:07;7.50;;;4.63;;
5785;SDS011;2919;48.630;9.000;2022-08-19T13:57:34;8.77;;;4.60;;
5785;SDS011;2919;48.630;9.000;2022-08-19T14:00:03;8.03;;;4.80;;
5785;SDS011;2919;48.630;9.000;2022-08-19T14:02:30;6.30;;;4.23;;
5785;SDS011;2919;48.630;9.000;2022-08-19T14:04:56;7.17;;;4.70;;
5785;SDS011;2919;48.630;9.000;2022-08-19T14:07:22;8.23;;;4.70;;
5785;SDS011;2919;48.630;9.000;2022-08-19T14:09:49;7.73;;;4.43;;
5785;SDS011;2919;48.630;9.000;2022-08-19T14:12:18;6.70;;;3.90;;
5785;SDS011;2919;48.630;9.000;2022-08-19T14:14:45;10.30;;;4.77;;
5785;SDS011;2919;48.630;9.000;2022-08-19T14:17:11;7.87;;;4.37;;
5785;SDS011;2919;48.630;9.000;2022-08-19T14:19:36;8.90;;;4.80;;
5785;SDS011;2919;48.630;9.000;2022-08-19T14:22:02;8.10;;;4.83;;
5785;SDS011;2919;48.630;9.000;2022-08-19T14:24:29;4.97;;;3.50;;
5785;SDS011;2919;48.630;9.000;2022-08-19T14:26:55;5.50;;;3.77;;
5785;SDS011;2919;48.630;9.000;2022-08-19T14:29:22;10.00;;;5.40;;
5785;SDS011;2919;48.630;9.000;2022-08-19T14:31:47;8.70;;;5.23;;
5785;SDS011;2919;48.630;9.000;2022-08-19T14:34:13;7.47;;;4.60;;
5785;SDS011;2919;48.630;9.000;2022-08-19T14:36:39;9.30;;;5.40;;
5785;SDS011;2919;48.630;9.000;2022-08-19T14:39:04;7.00;;;5.30;;
5785;SDS011;2919;48.630;9.000;2022-08-19T14:41:31;5.97;;;3.97;;
5785;SDS011;2919;48.630;9.000;2022-08-19T14:43:57;7.73;;;4.77;;
5785;SDS011;2919;48.630;9.000;2022-08-19T14:46:24;7.30;;;4.50;;
5785;SDS011;2919;48.630;9.000;2022-08-19T14:48:52;7.80;;;4.17;;
5785;SDS011;2919;48.630;9.000;2022-08-19T14:51:20;5.33;;;4.20;;
5785;SDS011;2919;48.630;9.000;2022-08-19T14:53:47;8.43;;;5.13;;
5785;SDS011;2919;48.630;9.000;2022-08-19T14:56:16;6.90;;;4.30;;
5785;SDS011;2919;48.630;9.000;2022-08-19T14:58:44;7.40;;;4.20;;
5785;SDS011;2919;48.630;9.000;2022-08-19T15:01:10;6.87;;;4.40;;
5785;SDS011;2919;48.630;9.000;2022-08-19T15:03:37;6.93;;;4.70;;
5785;SDS011;2919;48.630;9.000;2022-08-19T15:06:04;7.57;;;4.40;;
5785;SDS011;2919;48.630;9.000;2022-08-19T15:08:31;6.00;;;3.60;;
5785;SDS011;2919;48.630;9.000;2022-08-19T15:11:00;10.60;;;4.03;;
5785;SDS011;2919;48.630;9.000;2022-08-19T15:13:26;6.87;;;3.60;;